sensor_id;sensor_type;location;lat;lon;timestamp;P1;durP1;ratioP1;P2;durP2;ratioP2
7899;SDS011;3995;50.856;4.404;2023-05-10T00:00:37;7.70;;;5.47;;
7899;SDS011;3995;50.856;4.404;2023-05-10T00:03:05;7.93;;;4.90;;
7899;SDS011;3995;50.856;4.404;2023-05-10T00:05:32;5.80;;;4.40;;
7899;SDS011;3995;50.856;4.404;2023-05-10T00:08:00;7.30;;;4.80;;
7899;SDS011;3995;50.856;4.404;2023-05-10T00:10:28;5.70;;;4.13;;
7899;SDS011;3995;50.856;4.404;2023-05-10T00:12:55;7.93;;;4.83;;
7899;SDS011;3995;50.856;4.404;2023-05-10T00:15:22;7.07;;;4.50;;
7899;SDS011;3995;50.856;4.404;2023-05-10T00:17:51;6.53;;;4.67;;
7899;SDS011;3995;50.856;4.404;2023-05-10T00:20:19;10.03;;;5.03;;
7899;SDS011;3995;50.856;4.404;2023-05-10T00:22:46;8.97;;;5.30;;
7899;SDS011;3995;50.856;4.404;2023-05-10T00:25:14;16.60;;;5.43;;
7899;SDS011;3995;50.856;4.404;2023-05-10T00:27:42;6.70;;;5.20;;
7899;SDS011;3995;50.856;4.404;2023-05-10T00:30:09;10.03;;;4.80;;
7899;SDS011;3995;50.856;4.404;2023-05-10T00:32:37;9.60;;;5.20;;
7899;SDS011;3995;50.856;4.404;2023-05-10T00:35:07;8.03;;;5.80;;
7899;SDS011;3995;50.856;4.404;2023-05-10T00:37:34;8.40;;;6.10;;
7899;SDS011;3995;50.856;4.404;2023-05-10T00:40:02;10.33;;;6.30;;
7899;SDS011;3995;50.856;4.404;2023-05-10T00:42:30;7.40;;;5.57;;
7899;SDS011;3995;50.856;4.404;2023-05-10T00:44:57;10.70;;;5.63;;
7899;SDS011;3995;50.856;4.404;2023-05-10T00:47:24;10.00;;;6.63;;
7899;SDS011;3995;50.856;4.404;2023-05-10T00:49:52;8.70;;;5.33;;
7899;SDS011;3995;50.856;4.404;2023-05-10T00:52:22;16.80;;;5.70;;
7899;SDS011;3995;50.856;4.404;2023-05-10T00:54:50;14.00;;;6.00;;
7899;SDS011;3995;50.856;4.404;2023-05-10T00:57:18;7.60;;;6.10;;
7899;SDS011;3995;50.856;4.404;2023-05-10T00:59:45;9.40;;;6.17;;
7899;SDS011;3995;50.856;4.404;2023-05-10T01:02:20;9.20;;;5.20;;
7899;SDS011;3995;50.856;4.404;2023-05-10T01:04:47;8.00;;;5.43;;
7899;SDS011;3995;50.856;4.404;2023-05-10T01:07:17;9.10;;;5.53;;
7899;SDS011;3995;50.856;4.404;2023-05-10T01:09:46;15.70;;;5.97;;
7899;SDS011;3995;50.856;4.404;2023-05-10T01:12:14;8.97;;;5.60;;
7899;SDS011;3995;50.856;4.404;2023-05-10T01:14:42;10.43;;;6.10;;
7899;SDS011;3995;50.856;4.404;2023-05-10T01:17:10;10.47;;;5.90;;
7899;SDS011;3995;50.856;4.404;2023-05-10T01:19:38;8.50;;;6.10;;
7899;SDS011;3995;50.856;4.404;2023-05-10T01:22:08;10.97;;;5.77;;
7899;SDS011;3995;50.856;4.404;2023-05-10T01:25:01;7.07;;;5.33;;
7899;SDS011;3995;50.856;4.404;2023-05-10T01:27:50;11.40;;;5.77;;
7899;SDS011;3995;50.856;4.404;2023-05-10T01:33:31;11.03;;;6.43;;
7899;SDS011;3995;50.856;4.404;2023-05-10T01:36:03;9.50;;;6.90;;
7899;SDS011;3995;50.856;4.404;2023-05-10T01:38:38;8.47;;;6.40;;
7899;SDS011;3995;50.856;4.404;2023-05-10T01:41:13;9.60;;;6.63;;
7899;SDS011;3995;50.856;4.404;2023-05-10T01:43:46;13.87;;;7.13;;
7899;SDS011;3995;50.856;4.404;2023-05-10T01:46:21;9.20;;;6.40;;
7899;SDS011;3995;50.856;4.404;2023-05-10T01:48:54;12.80;;;7.10;;
7899;SDS011;3995;50.856;4.404;2023-05-10T01:51:23;13.23;;;7.13;;
7899;SDS011;3995;50.856;4.404;2023-05-10T01:53:56;9.50;;;6.63;;
7899;SDS011;3995;50.856;4.404;2023-05-10T01:56:28;10.10;;;6.20;;
7899;SDS011;3995;50.856;4.404;2023-05-10T01:58:58;8.20;;;6.33;;
7899;SDS011;3995;50.856;4.404;2023-05-10T02:01:32;9.03;;;6.27;;
7899;SDS011;3995;50.856;4.404;2023-05-10T02:04:05;10.57;;;6.30;;
7899;SDS011;3995;50.856;4.404;2023-05-10T02:06:33;9.90;;;6.30;;
7899;SDS011;3995;50.856;4.404;2023-05-10T02:09:02;7.33;;;5.90;;
7899;SDS011;3995;50.856;4.404;2023-05-10T02:11:31;10.67;;;6.83;;
7899;SDS011;3995;50.856;4.404;2023-05-10T02:13:59;10.33;;;6.70;;
7899;SDS011;3995;50.856;4.404;2023-05-10T02:16:27;9.30;;;6.70;;
7899;SDS011;3995;50.856;4.404;2023-05-10T02:18:56;11.33;;;8.17;;
7899;SDS011;3995;50.856;4.404;2023-05-10T02:21:27;8.40;;;7.20;;
7899;SDS011;3995;50.856;4.404;2023-05-10T02:23:57;8.47;;;6.40;;
7899;SDS011;3995;50.856;4.404;2023-05-10T02:26:27;9.43;;;7.00;;
7899;SDS011;3995;50.856;4.404;2023-05-10T02:28:55;9.80;;;6.83;;
7899;SDS011;3995;50.856;4.404;2023-05-10T02:31:24;9.73;;;7.40;;
7899;SDS011;3995;50.856;4.404;2023-05-10T02:33:52;10.63;;;7.00;;
7899;SDS011;3995;50.856;4.404;2023-05-10T02:36:21;7.70;;;6.47;;
7899;SDS011;3995;50.856;4.404;2023-05-10T02:38:51;8.17;;;6.43;;
7899;SDS011;3995;50.856;4.404;2023-05-10T02:41:19;9.13;;;6.70;;
7899;SDS011;3995;50.856;4.404;2023-05-10T02:43:49;8.90;;;6.10;;
7899;SDS011;3995;50.856;4.404;2023-05-10T02:46:17;8.00;;;5.90;;
7899;SDS011;3995;50.856;4.404;2023-05-10T02:48:45;9.93;;;6.90;;
7899;SDS011;3995;50.856;4.404;2023-05-10T02:51:13;8.27;;;6.43;;
7899;SDS011;3995;50.856;4.404;2023-05-10T02:53:44;9.73;;;6.70;;
7899;SDS011;3995;50.856;4.404;2023-05-10T02:56:16;7.00;;;6.30;;
7899;SDS011;3995;50.856;4.404;2023-05-10T02:58:51;9.03;;;7.13;;
7899;SDS011;3995;50.856;4.404;2023-05-10T03:01:19;9.43;;;7.40;;
7899;SDS011;3995;50.856;4.404;2023-05-10T03:03:46;8.40;;;6.80;;
7899;SDS011;3995;50.856;4.404;2023-05-10T03:06:13;8.87;;;7.00;;
7899;SDS011;3995;50.856;4.404;2023-05-10T03:08:41;9.23;;;6.53;;
7899;SDS011;3995;50.856;4.404;2023-05-10T03:11:20;8.47;;;5.70;;
7899;SDS011;3995;50.856;4.404;2023-05-10T03:14:02;7.37;;;6.10;;
7899;SDS011;3995;50.856;4.404;2023-05-10T03:16:40;7.77;;;5.77;;
7899;SDS011;3995;50.856;4.404;2023-05-10T03:19:12;9.83;;;6.50;;
7899;SDS011;3995;50.856;4.404;2023-05-10T03:21:49;8.83;;;6.50;;
7899;SDS011;3995;50.856;4.404;2023-05-10T03:24:20;10.80;;;7.27;;
7899;SDS011;3995;50.856;4.404;2023-05-10T03:26:51;11.10;;;7.40;;
7899;SDS011;3995;50.856;4.404;2023-05-10T03:29:20;8.40;;;6.50;;
7899;SDS011;3995;50.856;4.404;2023-05-10T03:31:49;7.60;;;6.80;;
7899;SDS011;3995;50.856;4.404;2023-05-10T03:34:17;7.93;;;6.40;;
7899;SDS011;3995;50.856;4.404;2023-05-10T03:36:50;11.70;;;7.23;;
7899;SDS011;3995;50.856;4.404;2023-05-10T03:39:18;8.77;;;7.40;;
7899;SDS011;3995;50.856;4.404;2023-05-10T03:41:46;8.93;;;7.50;;
7899;SDS011;3995;50.856;4.404;2023-05-10T03:44:15;9.37;;;7.30;;
7899;SDS011;3995;50.856;4.404;2023-05-10T03:46:42;10.63;;;7.90;;
7899;SDS011;3995;50.856;4.404;2023-05-10T03:49:10;9.20;;;7.70;;
7899;SDS011;3995;50.856;4.404;2023-05-10T03:51:38;11.83;;;8.53;;
7899;SDS011;3995;50.856;4.404;2023-05-10T03:54:06;11.13;;;9.30;;
7899;SDS011;3995;50.856;4.404;2023-05-10T03:56:34;16.23;;;8.53;;
7899;SDS011;3995;50.856;4.404;2023-05-10T03:59:02;11.90;;;8.33;;
7899;SDS011;3995;50.856;4.404;2023-05-10T04:01:34;10.50;;;8.30;;
7899;SDS011;3995;50.856;4.404;2023-05-10T04:04:01;11.17;;;8.83;;
7899;SDS011;3995;50.856;4.404;2023-05-10T04:06:28;11.52;;;8.50;;
7899;SDS011;3995;50.856;4.404;2023-05-10T04:08:57;14.30;;;9.20;;
7899;SDS011;3995;50.856;4.404;2023-05-10T04:11:25;15.10;;;9.13;;
7899;SDS011;3995;50.856;4.404;2023-05-10T04:13:53;12.60;;;9.77;;
7899;SDS011;3995;50.856;4.404;2023-05-10T04:16:21;11.70;;;9.43;;
7899;SDS011;3995;50.856;4.404;2023-05-10T04:18:50;15.60;;;10.03;;
7899;SDS011;3995;50.856;4.404;2023-05-10T04:21:17;11.60;;;9.70;;
7899;SDS011;3995;50.856;4.404;2023-05-10T04:23:45;10.50;;;8.60;;
7899;SDS011;3995;50.856;4.404;2023-05-10T04:26:13;11.60;;;9.57;;
7899;SDS011;3995;50.856;4.404;2023-05-10T04:28:40;13.90;;;10.43;;
7899;SDS011;3995;50.856;4.404;2023-05-10T04:31:08;11.43;;;9.20;;
7899;SDS011;3995;50.856;4.404;2023-05-10T04:33:36;12.57;;;9.93;;
7899;SDS011;3995;50.856;4.404;2023-05-10T04:36:06;10.80;;;9.60;;
7899;SDS011;3995;50.856;4.404;2023-05-10T04:38:33;13.23;;;10.23;;
7899;SDS011;3995;50.856;4.404;2023-05-10T04:41:03;16.63;;;10.30;;
7899;SDS011;3995;50.856;4.404;2023-05-10T04:43:31;12.37;;;10.40;;
7899;SDS011;3995;50.856;4.404;2023-05-10T04:45:58;11.80;;;10.60;;
7899;SDS011;3995;50.856;4.404;2023-05-10T04:48:26;12.80;;;10.93;;
7899;SDS011;3995;50.856;4.404;2023-05-10T04:50:54;12.07;;;10.87;;
7899;SDS011;3995;50.856;4.404;2023-05-10T04:53:23;13.63;;;10.83;;
7899;SDS011;3995;50.856;4.404;2023-05-10T04:55:50;12.73;;;10.73;;
7899;SDS011;3995;50.856;4.404;2023-05-10T04:58:17;17.93;;;11.80;;
7899;SDS011;3995;50.856;4.404;2023-05-10T05:00:44;16.57;;;11.77;;
7899;SDS011;3995;50.856;4.404;2023-05-10T05:03:12;13.73;;;11.80;;
7899;SDS011;3995;50.856;4.404;2023-05-10T05:05:39;15.23;;;11.03;;
7899;SDS011;3995;50.856;4.404;2023-05-10T05:08:07;14.73;;;11.90;;
7899;SDS011;3995;50.856;4.404;2023-05-10T05:10:36;17.40;;;13.10;;
7899;SDS011;3995;50.856;4.404;2023-05-10T05:13:04;16.43;;;11.57;;
7899;SDS011;3995;50.856;4.404;2023-05-10T05:15:31;14.27;;;12.13;;
7899;SDS011;3995;50.856;4.404;2023-05-10T05:17:58;13.60;;;11.13;;
7899;SDS011;3995;50.856;4.404;2023-05-10T05:20:26;14.97;;;11.90;;
7899;SDS011;3995;50.856;4.404;2023-05-10T05:22:54;14.40;;;11.33;;
7899;SDS011;3995;50.856;4.404;2023-05-10T05:25:21;15.07;;;11.73;;
7899;SDS011;3995;50.856;4.404;2023-05-10T05:27:51;14.40;;;11.70;;
7899;SDS011;3995;50.856;4.404;2023-05-10T05:30:19;15.00;;;11.30;;
7899;SDS011;3995;50.856;4.404;2023-05-10T05:32:46;12.03;;;10.80;;
7899;SDS011;3995;50.856;4.404;2023-05-10T05:35:14;15.03;;;11.23;;
7899;SDS011;3995;50.856;4.404;2023-05-10T05:37:43;20.70;;;12.00;;
7899;SDS011;3995;50.856;4.404;2023-05-10T05:40:12;13.57;;;12.17;;
7899;SDS011;3995;50.856;4.404;2023-05-10T05:42:39;17.03;;;11.50;;
7899;SDS011;3995;50.856;4.404;2023-05-10T05:45:10;11.73;;;8.97;;
7899;SDS011;3995;50.856;4.404;2023-05-10T05:47:38;12.40;;;8.50;;
7899;SDS011;3995;50.856;4.404;2023-05-10T05:50:06;10.27;;;7.80;;
7899;SDS011;3995;50.856;4.404;2023-05-10T05:52:34;9.17;;;7.27;;
7899;SDS011;3995;50.856;4.404;2023-05-10T05:55:03;11.50;;;6.70;;
7899;SDS011;3995;50.856;4.404;2023-05-10T05:57:31;10.60;;;5.63;;
7899;SDS011;3995;50.856;4.404;2023-05-10T05:59:59;8.70;;;6.17;;
7899;SDS011;3995;50.856;4.404;2023-05-10T06:02:30;8.57;;;7.00;;
7899;SDS011;3995;50.856;4.404;2023-05-10T06:04:57;14.20;;;7.10;;
7899;SDS011;3995;50.856;4.404;2023-05-10T06:07:28;9.97;;;7.83;;
7899;SDS011;3995;50.856;4.404;2023-05-10T06:09:57;13.50;;;7.63;;
7899;SDS011;3995;50.856;4.404;2023-05-10T06:12:24;11.27;;;7.47;;
7899;SDS011;3995;50.856;4.404;2023-05-10T06:14:52;9.80;;;7.40;;
7899;SDS011;3995;50.856;4.404;2023-05-10T06:17:19;10.00;;;7.53;;
7899;SDS011;3995;50.856;4.404;2023-05-10T06:19:49;10.87;;;7.40;;
7899;SDS011;3995;50.856;4.404;2023-05-10T06:22:17;10.83;;;7.97;;
7899;SDS011;3995;50.856;4.404;2023-05-10T06:24:44;11.73;;;7.83;;
7899;SDS011;3995;50.856;4.404;2023-05-10T06:27:12;11.40;;;8.80;;
7899;SDS011;3995;50.856;4.404;2023-05-10T06:29:39;9.87;;;7.90;;
7899;SDS011;3995;50.856;4.404;2023-05-10T06:32:06;10.07;;;7.70;;
7899;SDS011;3995;50.856;4.404;2023-05-10T06:34:34;10.40;;;7.10;;
7899;SDS011;3995;50.856;4.404;2023-05-10T06:37:03;10.60;;;6.13;;
7899;SDS011;3995;50.856;4.404;2023-05-10T06:39:31;9.63;;;5.80;;
7899;SDS011;3995;50.856;4.404;2023-05-10T06:41:58;9.20;;;5.07;;
7899;SDS011;3995;50.856;4.404;2023-05-10T06:44:27;6.77;;;4.60;;
7899;SDS011;3995;50.856;4.404;2023-05-10T06:46:55;6.13;;;4.70;;
7899;SDS011;3995;50.856;4.404;2023-05-10T06:49:23;6.50;;;4.23;;
7899;SDS011;3995;50.856;4.404;2023-05-10T06:51:50;7.00;;;3.57;;
7899;SDS011;3995;50.856;4.404;2023-05-10T06:54:20;5.67;;;4.23;;
7899;SDS011;3995;50.856;4.404;2023-05-10T06:56:48;13.60;;;4.60;;
7899;SDS011;3995;50.856;4.404;2023-05-10T06:59:15;10.23;;;4.43;;
7899;SDS011;3995;50.856;4.404;2023-05-10T07:01:44;6.43;;;4.60;;
7899;SDS011;3995;50.856;4.404;2023-05-10T07:04:11;6.50;;;4.83;;
7899;SDS011;3995;50.856;4.404;2023-05-10T07:06:39;12.53;;;6.33;;
7899;SDS011;3995;50.856;4.404;2023-05-10T07:09:06;7.07;;;5.87;;
7899;SDS011;3995;50.856;4.404;2023-05-10T07:11:35;8.63;;;6.00;;
7899;SDS011;3995;50.856;4.404;2023-05-10T07:14:03;10.80;;;6.50;;
7899;SDS011;3995;50.856;4.404;2023-05-10T07:16:31;9.97;;;6.43;;
7899;SDS011;3995;50.856;4.404;2023-05-10T07:18:59;13.37;;;5.93;;
7899;SDS011;3995;50.856;4.404;2023-05-10T07:21:27;9.83;;;6.40;;
7899;SDS011;3995;50.856;4.404;2023-05-10T07:23:54;11.50;;;6.00;;
7899;SDS011;3995;50.856;4.404;2023-05-10T07:26:22;10.43;;;6.70;;
7899;SDS011;3995;50.856;4.404;2023-05-10T07:28:51;9.10;;;6.30;;
7899;SDS011;3995;50.856;4.404;2023-05-10T07:31:19;10.30;;;6.97;;
7899;SDS011;3995;50.856;4.404;2023-05-10T07:33:46;12.03;;;7.20;;
7899;SDS011;3995;50.856;4.404;2023-05-10T07:36:13;11.20;;;7.10;;
7899;SDS011;3995;50.856;4.404;2023-05-10T07:38:40;10.23;;;6.80;;
7899;SDS011;3995;50.856;4.404;2023-05-10T07:41:08;11.00;;;6.30;;
7899;SDS011;3995;50.856;4.404;2023-05-10T07:43:36;11.20;;;6.83;;
7899;SDS011;3995;50.856;4.404;2023-05-10T07:46:05;14.23;;;7.37;;
7899;SDS011;3995;50.856;4.404;2023-05-10T07:48:35;11.00;;;6.03;;
7899;SDS011;3995;50.856;4.404;2023-05-10T07:51:03;15.17;;;6.37;;
7899;SDS011;3995;50.856;4.404;2023-05-10T07:53:31;10.97;;;5.60;;
7899;SDS011;3995;50.856;4.404;2023-05-10T07:55:58;10.73;;;5.40;;
7899;SDS011;3995;50.856;4.404;2023-05-10T07:58:45;8.07;;;5.40;;
7899;SDS011;3995;50.856;4.404;2023-05-10T08:01:14;8.77;;;5.60;;
7899;SDS011;3995;50.856;4.404;2023-05-10T08:03:42;12.07;;;6.10;;
7899;SDS011;3995;50.856;4.404;2023-05-10T08:06:09;8.63;;;5.33;;
7899;SDS011;3995;50.856;4.404;2023-05-10T08:08:37;10.97;;;5.83;;
7899;SDS011;3995;50.856;4.404;2023-05-10T08:11:05;10.90;;;6.47;;
7899;SDS011;3995;50.856;4.404;2023-05-10T08:13:32;11.30;;;5.37;;
7899;SDS011;3995;50.856;4.404;2023-05-10T08:16:00;7.60;;;5.73;;
7899;SDS011;3995;50.856;4.404;2023-05-10T08:18:29;8.70;;;6.63;;
7899;SDS011;3995;50.856;4.404;2023-05-10T08:20:57;7.17;;;5.80;;
7899;SDS011;3995;50.856;4.404;2023-05-10T08:23:25;8.87;;;6.90;;
7899;SDS011;3995;50.856;4.404;2023-05-10T08:25:53;11.83;;;6.40;;
7899;SDS011;3995;50.856;4.404;2023-05-10T08:28:21;10.93;;;6.87;;
7899;SDS011;3995;50.856;4.404;2023-05-10T08:30:49;9.53;;;6.67;;
7899;SDS011;3995;50.856;4.404;2023-05-10T08:33:17;8.90;;;5.90;;
7899;SDS011;3995;50.856;4.404;2023-05-10T08:35:47;6.97;;;4.93;;
7899;SDS011;3995;50.856;4.404;2023-05-10T08:38:15;9.93;;;5.47;;
7899;SDS011;3995;50.856;4.404;2023-05-10T08:40:43;6.57;;;5.10;;
7899;SDS011;3995;50.856;4.404;2023-05-10T08:43:11;6.47;;;4.77;;
7899;SDS011;3995;50.856;4.404;2023-05-10T08:45:40;6.10;;;5.00;;
7899;SDS011;3995;50.856;4.404;2023-05-10T08:48:10;8.13;;;4.90;;
7899;SDS011;3995;50.856;4.404;2023-05-10T08:50:38;6.40;;;4.83;;
7899;SDS011;3995;50.856;4.404;2023-05-10T08:53:10;7.53;;;5.13;;
7899;SDS011;3995;50.856;4.404;2023-05-10T08:55:39;8.77;;;4.40;;
7899;SDS011;3995;50.856;4.404;2023-05-10T08:58:08;6.83;;;3.93;;
7899;SDS011;3995;50.856;4.404;2023-05-10T09:00:36;10.33;;;6.13;;
7899;SDS011;3995;50.856;4.404;2023-05-10T09:03:04;5.70;;;5.17;;
7899;SDS011;3995;50.856;4.404;2023-05-10T09:05:32;9.93;;;5.37;;
7899;SDS011;3995;50.856;4.404;2023-05-10T09:08:00;5.60;;;4.87;;
7899;SDS011;3995;50.856;4.404;2023-05-10T09:10:29;5.33;;;4.77;;
7899;SDS011;3995;50.856;4.404;2023-05-10T09:12:57;6.10;;;4.27;;
7899;SDS011;3995;50.856;4.404;2023-05-10T09:15:25;6.50;;;5.63;;
7899;SDS011;3995;50.856;4.404;2023-05-10T09:17:52;6.10;;;4.47;;
7899;SDS011;3995;50.856;4.404;2023-05-10T09:20:23;6.60;;;5.90;;
7899;SDS011;3995;50.856;4.404;2023-05-10T09:22:51;6.57;;;4.93;;
7899;SDS011;3995;50.856;4.404;2023-05-10T09:25:18;5.63;;;4.80;;
7899;SDS011;3995;50.856;4.404;2023-05-10T09:27:48;6.70;;;4.93;;
7899;SDS011;3995;50.856;4.404;2023-05-10T09:30:17;4.90;;;4.40;;
7899;SDS011;3995;50.856;4.404;2023-05-10T09:32:49;4.83;;;4.33;;
7899;SDS011;3995;50.856;4.404;2023-05-10T09:35:18;5.40;;;4.50;;
7899;SDS011;3995;50.856;4.404;2023-05-10T09:37:49;4.33;;;3.90;;
7899;SDS011;3995;50.856;4.404;2023-05-10T09:40:17;5.73;;;3.80;;
7899;SDS011;3995;50.856;4.404;2023-05-10T09:42:53;6.47;;;4.27;;
7899;SDS011;3995;50.856;4.404;2023-05-10T09:45:23;5.13;;;4.37;;
7899;SDS011;3995;50.856;4.404;2023-05-10T09:47:51;4.93;;;3.60;;
7899;SDS011;3995;50.856;4.404;2023-05-10T09:50:19;4.03;;;3.50;;
7899;SDS011;3995;50.856;4.404;2023-05-10T09:52:48;3.87;;;3.37;;
7899;SDS011;3995;50.856;4.404;2023-05-10T09:55:17;4.40;;;3.50;;
7899;SDS011;3995;50.856;4.404;2023-05-10T09:57:45;5.57;;;3.77;;
7899;SDS011;3995;50.856;4.404;2023-05-10T10:00:18;5.73;;;3.57;;
7899;SDS011;3995;50.856;4.404;2023-05-10T10:02:47;4.43;;;3.53;;
7899;SDS011;3995;50.856;4.404;2023-05-10T10:05:20;7.07;;;4.17;;
7899;SDS011;3995;50.856;4.404;2023-05-10T10:07:55;6.03;;;3.87;;
7899;SDS011;3995;50.856;4.404;2023-05-10T10:10:24;4.47;;;3.70;;
7899;SDS011;3995;50.856;4.404;2023-05-10T10:12:52;5.90;;;3.97;;
7899;SDS011;3995;50.856;4.404;2023-05-10T10:15:21;6.80;;;4.87;;
7899;SDS011;3995;50.856;4.404;2023-05-10T10:17:50;4.90;;;4.30;;
7899;SDS011;3995;50.856;4.404;2023-05-10T10:20:18;8.60;;;4.10;;
7899;SDS011;3995;50.856;4.404;2023-05-10T10:22:47;8.40;;;4.00;;
7899;SDS011;3995;50.856;4.404;2023-05-10T10:25:16;5.13;;;4.00;;
7899;SDS011;3995;50.856;4.404;2023-05-10T10:27:47;4.80;;;4.23;;
7899;SDS011;3995;50.856;4.404;2023-05-10T10:30:25;4.50;;;3.73;;
7899;SDS011;3995;50.856;4.404;2023-05-10T10:33:10;4.83;;;3.40;;
7899;SDS011;3995;50.856;4.404;2023-05-10T10:35:51;4.83;;;3.47;;
7899;SDS011;3995;50.856;4.404;2023-05-10T10:38:20;4.87;;;3.73;;
7899;SDS011;3995;50.856;4.404;2023-05-10T10:40:48;4.67;;;3.80;;
7899;SDS011;3995;50.856;4.404;2023-05-10T10:43:28;4.80;;;4.00;;
7899;SDS011;3995;50.856;4.404;2023-05-10T10:48:47;4.43;;;3.53;;
7899;SDS011;3995;50.856;4.404;2023-05-10T10:51:16;4.50;;;3.40;;
7899;SDS011;3995;50.856;4.404;2023-05-10T10:53:44;5.33;;;3.70;;
7899;SDS011;3995;50.856;4.404;2023-05-10T10:56:14;4.07;;;3.67;;
7899;SDS011;3995;50.856;4.404;2023-05-10T10:58:48;4.00;;;3.50;;
7899;SDS011;3995;50.856;4.404;2023-05-10T11:01:20;5.20;;;3.57;;
7899;SDS011;3995;50.856;4.404;2023-05-10T11:03:56;4.97;;;3.67;;
7899;SDS011;3995;50.856;4.404;2023-05-10T11:06:45;4.47;;;3.67;;
7899;SDS011;3995;50.856;4.404;2023-05-10T11:09:13;5.20;;;4.17;;
7899;SDS011;3995;50.856;4.404;2023-05-10T11:11:50;6.33;;;4.23;;
7899;SDS011;3995;50.856;4.404;2023-05-10T11:14:20;6.57;;;3.30;;
7899;SDS011;3995;50.856;4.404;2023-05-10T11:16:50;4.50;;;3.63;;
7899;SDS011;3995;50.856;4.404;2023-05-10T11:19:17;4.60;;;3.60;;
7899;SDS011;3995;50.856;4.404;2023-05-10T11:21:46;5.60;;;3.60;;
7899;SDS011;3995;50.856;4.404;2023-05-10T11:24:16;4.90;;;3.97;;
7899;SDS011;3995;50.856;4.404;2023-05-10T11:26:45;5.70;;;3.67;;
7899;SDS011;3995;50.856;4.404;2023-05-10T11:29:15;5.40;;;3.90;;
7899;SDS011;3995;50.856;4.404;2023-05-10T11:31:43;4.40;;;3.80;;
7899;SDS011;3995;50.856;4.404;2023-05-10T11:34:15;4.23;;;3.60;;
7899;SDS011;3995;50.856;4.404;2023-05-10T11:36:51;5.73;;;4.47;;
7899;SDS011;3995;50.856;4.404;2023-05-10T11:39:19;6.10;;;4.27;;
7899;SDS011;3995;50.856;4.404;2023-05-10T11:41:49;6.07;;;3.80;;
7899;SDS011;3995;50.856;4.404;2023-05-10T11:44:16;5.70;;;4.23;;
7899;SDS011;3995;50.856;4.404;2023-05-10T11:46:44;3.80;;;3.47;;
7899;SDS011;3995;50.856;4.404;2023-05-10T11:49:14;5.50;;;3.40;;
7899;SDS011;3995;50.856;4.404;2023-05-10T11:51:42;4.47;;;4.00;;
7899;SDS011;3995;50.856;4.404;2023-05-10T11:54:10;4.20;;;3.80;;
7899;SDS011;3995;50.856;4.404;2023-05-10T11:56:38;6.17;;;4.27;;
7899;SDS011;3995;50.856;4.404;2023-05-10T11:59:06;4.37;;;3.97;;
7899;SDS011;3995;50.856;4.404;2023-05-10T12:01:34;8.03;;;4.20;;
7899;SDS011;3995;50.856;4.404;2023-05-10T12:04:03;4.10;;;3.70;;
7899;SDS011;3995;50.856;4.404;2023-05-10T12:06:36;6.93;;;3.90;;
7899;SDS011;3995;50.856;4.404;2023-05-10T12:09:07;5.70;;;5.10;;
7899;SDS011;3995;50.856;4.404;2023-05-10T12:11:36;5.37;;;4.40;;
7899;SDS011;3995;50.856;4.404;2023-05-10T12:14:05;6.40;;;5.13;;
7899;SDS011;3995;50.856;4.404;2023-05-10T12:16:33;5.23;;;4.70;;
7899;SDS011;3995;50.856;4.404;2023-05-10T12:19:00;6.17;;;4.47;;
7899;SDS011;3995;50.856;4.404;2023-05-10T12:21:28;6.00;;;4.40;;
7899;SDS011;3995;50.856;4.404;2023-05-10T12:24:01;5.17;;;4.67;;
7899;SDS011;3995;50.856;4.404;2023-05-10T12:26:30;5.77;;;5.20;;
7899;SDS011;3995;50.856;4.404;2023-05-10T12:29:11;5.90;;;5.30;;
7899;SDS011;3995;50.856;4.404;2023-05-10T12:31:50;5.40;;;4.40;;
7899;SDS011;3995;50.856;4.404;2023-05-10T12:34:24;5.87;;;5.10;;
7899;SDS011;3995;50.856;4.404;2023-05-10T12:36:52;5.53;;;4.43;;
7899;SDS011;3995;50.856;4.404;2023-05-10T12:39:23;5.40;;;4.90;;
7899;SDS011;3995;50.856;4.404;2023-05-10T12:41:50;7.30;;;5.20;;
7899;SDS011;3995;50.856;4.404;2023-05-10T12:44:18;5.00;;;4.50;;
7899;SDS011;3995;50.856;4.404;2023-05-10T12:46:45;4.53;;;4.10;;
7899;SDS011;3995;50.856;4.404;2023-05-10T12:49:13;5.20;;;4.50;;
7899;SDS011;3995;50.856;4.404;2023-05-10T12:51:40;7.00;;;5.23;;
7899;SDS011;3995;50.856;4.404;2023-05-10T12:54:07;7.00;;;4.87;;
7899;SDS011;3995;50.856;4.404;2023-05-10T12:56:36;5.87;;;5.27;;
7899;SDS011;3995;50.856;4.404;2023-05-10T12:59:05;6.80;;;5.40;;
7899;SDS011;3995;50.856;4.404;2023-05-10T13:01:33;6.73;;;5.57;;
7899;SDS011;3995;50.856;4.404;2023-05-10T13:04:01;5.60;;;4.50;;
7899;SDS011;3995;50.856;4.404;2023-05-10T13:06:28;12.00;;;5.13;;
7899;SDS011;3995;50.856;4.404;2023-05-10T13:08:57;8.33;;;4.80;;
7899;SDS011;3995;50.856;4.404;2023-05-10T13:11:24;5.90;;;4.33;;
7899;SDS011;3995;50.856;4.404;2023-05-10T13:13:53;6.03;;;4.00;;
7899;SDS011;3995;50.856;4.404;2023-05-10T13:16:21;6.60;;;4.50;;
7899;SDS011;3995;50.856;4.404;2023-05-10T13:18:48;4.80;;;4.30;;
7899;SDS011;3995;50.856;4.404;2023-05-10T13:21:16;7.20;;;4.30;;
7899;SDS011;3995;50.856;4.404;2023-05-10T13:23:44;4.40;;;3.57;;
7899;SDS011;3995;50.856;4.404;2023-05-10T13:26:11;4.17;;;3.10;;
7899;SDS011;3995;50.856;4.404;2023-05-10T13:28:38;8.27;;;3.60;;
7899;SDS011;3995;50.856;4.404;2023-05-10T13:31:07;5.00;;;3.50;;
7899;SDS011;3995;50.856;4.404;2023-05-10T13:33:34;5.87;;;4.23;;
7899;SDS011;3995;50.856;4.404;2023-05-10T13:36:02;6.70;;;4.43;;
7899;SDS011;3995;50.856;4.404;2023-05-10T13:38:30;8.03;;;4.90;;
7899;SDS011;3995;50.856;4.404;2023-05-10T13:40:57;5.77;;;5.27;;
7899;SDS011;3995;50.856;4.404;2023-05-10T13:43:25;9.17;;;5.30;;
7899;SDS011;3995;50.856;4.404;2023-05-10T13:45:53;7.90;;;5.40;;
7899;SDS011;3995;50.856;4.404;2023-05-10T13:48:22;8.67;;;5.43;;
7899;SDS011;3995;50.856;4.404;2023-05-10T13:50:50;11.53;;;5.27;;
7899;SDS011;3995;50.856;4.404;2023-05-10T13:53:17;7.27;;;4.60;;
7899;SDS011;3995;50.856;4.404;2023-05-10T13:55:44;5.80;;;4.80;;
7899;SDS011;3995;50.856;4.404;2023-05-10T13:58:11;7.10;;;4.50;;
7899;SDS011;3995;50.856;4.404;2023-05-10T14:00:38;8.77;;;5.57;;
7899;SDS011;3995;50.856;4.404;2023-05-10T14:03:06;9.23;;;5.23;;
7899;SDS011;3995;50.856;4.404;2023-05-10T14:05:37;7.23;;;5.80;;
7899;SDS011;3995;50.856;4.404;2023-05-10T14:08:04;6.37;;;5.77;;
7899;SDS011;3995;50.856;4.404;2023-05-10T14:10:34;7.40;;;5.63;;
7899;SDS011;3995;50.856;4.404;2023-05-10T14:13:02;8.27;;;7.07;;
7899;SDS011;3995;50.856;4.404;2023-05-10T14:15:29;14.30;;;8.27;;
7899;SDS011;3995;50.856;4.404;2023-05-10T14:17:57;11.60;;;9.17;;
7899;SDS011;3995;50.856;4.404;2023-05-10T14:20:24;9.47;;;7.57;;
7899;SDS011;3995;50.856;4.404;2023-05-10T14:22:56;8.33;;;7.37;;
7899;SDS011;3995;50.856;4.404;2023-05-10T14:25:23;8.37;;;7.47;;
7899;SDS011;3995;50.856;4.404;2023-05-10T14:27:51;10.63;;;8.40;;
7899;SDS011;3995;50.856;4.404;2023-05-10T14:30:19;9.20;;;8.30;;
7899;SDS011;3995;50.856;4.404;2023-05-10T14:32:47;13.70;;;9.23;;
7899;SDS011;3995;50.856;4.404;2023-05-10T14:35:14;16.87;;;9.77;;
7899;SDS011;3995;50.856;4.404;2023-05-10T14:37:41;9.40;;;8.00;;
7899;SDS011;3995;50.856;4.404;2023-05-10T14:40:12;10.30;;;8.40;;
7899;SDS011;3995;50.856;4.404;2023-05-10T14:42:40;10.93;;;8.47;;
7899;SDS011;3995;50.856;4.404;2023-05-10T14:45:08;12.67;;;8.50;;
7899;SDS011;3995;50.856;4.404;2023-05-10T14:47:37;7.90;;;7.10;;
7899;SDS011;3995;50.856;4.404;2023-05-10T14:50:05;9.80;;;7.73;;
7899;SDS011;3995;50.856;4.404;2023-05-10T14:52:33;11.70;;;8.10;;
7899;SDS011;3995;50.856;4.404;2023-05-10T14:55:00;11.53;;;8.50;;
7899;SDS011;3995;50.856;4.404;2023-05-10T14:57:30;10.37;;;7.90;;
7899;SDS011;3995;50.856;4.404;2023-05-10T14:59:58;9.57;;;8.13;;
7899;SDS011;3995;50.856;4.404;2023-05-10T15:02:25;11.17;;;7.20;;
7899;SDS011;3995;50.856;4.404;2023-05-10T15:04:52;11.33;;;7.47;;
7899;SDS011;3995;50.856;4.404;2023-05-10T15:07:20;8.73;;;6.50;;
7899;SDS011;3995;50.856;4.404;2023-05-10T15:09:48;7.50;;;6.80;;
7899;SDS011;3995;50.856;4.404;2023-05-10T15:12:16;11.83;;;6.13;;
7899;SDS011;3995;50.856;4.404;2023-05-10T15:14:45;8.87;;;6.67;;
7899;SDS011;3995;50.856;4.404;2023-05-10T15:17:13;11.50;;;6.97;;
7899;SDS011;3995;50.856;4.404;2023-05-10T15:19:41;12.80;;;7.03;;
7899;SDS011;3995;50.856;4.404;2023-05-10T15:22:08;6.10;;;3.80;;
7899;SDS011;3995;50.856;4.404;2023-05-10T15:24:36;8.57;;;4.07;;
7899;SDS011;3995;50.856;4.404;2023-05-10T15:27:03;6.60;;;3.10;;